sensor_id;sensor_type;location;lat;lon;timestamp;P1;durP1;ratioP1;P2;durP2;ratioP2
12433;SDS011;6281;49.038;8.372;2022-11-12T00:01:08;8.63;;;6.90;;
12433;SDS011;6281;49.038;8.372;2022-11-12T00:03:35;13.67;;;7.90;;
12433;SDS011;6281;49.038;8.372;2022-11-12T00:06:03;13.07;;;7.60;;
12433;SDS011;6281;49.038;8.372;2022-11-12T00:08:30;9.60;;;7.20;;
12433;SDS011;6281;49.038;8.372;2022-11-12T00:10:57;10.10;;;6.50;;
12433;SDS011;6281;49.038;8.372;2022-11-12T00:13:24;8.23;;;6.00;;
12433;SDS011;6281;49.038;8.372;2022-11-12T00:15:51;9.07;;;6.10;;
12433;SDS011;6281;49.038;8.372;2022-11-12T00:18:18;11.07;;;6.13;;
12433;SDS011;6281;49.038;8.372;2022-11-12T00:20:45;12.20;;;6.57;;
12433;SDS011;6281;49.038;8.372;2022-11-12T00:23:13;8.63;;;6.20;;
12433;SDS011;6281;49.038;8.372;2022-11-12T00:25:40;10.13;;;5.87;;
12433;SDS011;6281;49.038;8.372;2022-11-12T00:28:07;7.83;;;5.80;;
12433;SDS011;6281;49.038;8.372;2022-11-12T00:30:36;8.10;;;6.07;;
12433;SDS011;6281;49.038;8.372;2022-11-12T00:33:04;7.23;;;5.90;;
12433;SDS011;6281;49.038;8.372;2022-11-12T00:35:32;7.00;;;6.00;;
12433;SDS011;6281;49.038;8.372;2022-11-12T00:38:01;9.40;;;6.00;;
12433;SDS011;6281;49.038;8.372;2022-11-12T00:40:29;7.30;;;5.57;;
12433;SDS011;6281;49.038;8.372;2022-11-12T00:42:56;12.67;;;6.93;;
12433;SDS011;6281;49.038;8.372;2022-11-12T00:45:23;9.97;;;6.20;;
12433;SDS011;6281;49.038;8.372;2022-11-12T00:47:52;10.67;;;6.47;;
12433;SDS011;6281;49.038;8.372;2022-11-12T00:50:20;13.97;;;6.47;;
12433;SDS011;6281;49.038;8.372;2022-11-12T00:52:48;14.10;;;6.47;;
12433;SDS011;6281;49.038;8.372;2022-11-12T00:55:17;9.13;;;6.60;;
12433;SDS011;6281;49.038;8.372;2022-11-12T00:57:45;9.00;;;6.13;;
12433;SDS011;6281;49.038;8.372;2022-11-12T01:00:14;7.47;;;5.90;;
12433;SDS011;6281;49.038;8.372;2022-11-12T01:02:55;9.70;;;6.20;;
12433;SDS011;6281;49.038;8.372;2022-11-12T01:05:22;11.97;;;6.33;;
12433;SDS011;6281;49.038;8.372;2022-11-12T01:07:49;12.63;;;7.07;;
12433;SDS011;6281;49.038;8.372;2022-11-12T01:10:15;10.07;;;6.33;;
12433;SDS011;6281;49.038;8.372;2022-11-12T01:12:42;14.30;;;7.13;;
12433;SDS011;6281;49.038;8.372;2022-11-12T01:15:11;9.47;;;6.33;;
12433;SDS011;6281;49.038;8.372;2022-11-12T01:17:38;9.97;;;6.20;;
12433;SDS011;6281;49.038;8.372;2022-11-12T01:20:07;7.73;;;6.07;;
12433;SDS011;6281;49.038;8.372;2022-11-12T01:22:35;9.87;;;6.30;;
12433;SDS011;6281;49.038;8.372;2022-11-12T01:25:03;14.77;;;5.77;;
12433;SDS011;6281;49.038;8.372;2022-11-12T01:27:30;8.93;;;5.97;;
12433;SDS011;6281;49.038;8.372;2022-11-12T01:29:58;8.67;;;6.10;;
12433;SDS011;6281;49.038;8.372;2022-11-12T01:32:28;8.43;;;5.83;;
12433;SDS011;6281;49.038;8.372;2022-11-12T01:34:59;9.40;;;6.03;;
12433;SDS011;6281;49.038;8.372;2022-11-12T01:37:26;8.07;;;5.83;;
12433;SDS011;6281;49.038;8.372;2022-11-12T01:39:52;9.30;;;6.30;;
12433;SDS011;6281;49.038;8.372;2022-11-12T01:42:19;10.83;;;5.80;;
12433;SDS011;6281;49.038;8.372;2022-11-12T01:44:50;10.57;;;5.87;;
12433;SDS011;6281;49.038;8.372;2022-11-12T01:47:18;11.77;;;6.30;;
12433;SDS011;6281;49.038;8.372;2022-11-12T01:49:50;10.53;;;5.93;;
12433;SDS011;6281;49.038;8.372;2022-11-12T01:52:22;10.23;;;5.90;;
12433;SDS011;6281;49.038;8.372;2022-11-12T01:54:55;12.53;;;6.27;;
12433;SDS011;6281;49.038;8.372;2022-11-12T01:57:27;10.50;;;6.00;;
12433;SDS011;6281;49.038;8.372;2022-11-12T02:00:01;7.93;;;5.50;;
12433;SDS011;6281;49.038;8.372;2022-11-12T02:02:30;6.97;;;5.40;;
12433;SDS011;6281;49.038;8.372;2022-11-12T02:05:00;9.90;;;5.10;;
12433;SDS011;6281;49.038;8.372;2022-11-12T02:07:30;8.53;;;5.67;;
12433;SDS011;6281;49.038;8.372;2022-11-12T02:09:58;11.67;;;6.10;;
12433;SDS011;6281;49.038;8.372;2022-11-12T02:12:27;10.60;;;6.03;;
12433;SDS011;6281;49.038;8.372;2022-11-12T02:15:11;7.27;;;5.17;;
12433;SDS011;6281;49.038;8.372;2022-11-12T02:17:38;12.00;;;5.67;;
12433;SDS011;6281;49.038;8.372;2022-11-12T02:20:09;9.07;;;5.47;;
12433;SDS011;6281;49.038;8.372;2022-11-12T02:22:38;8.80;;;6.00;;
12433;SDS011;6281;49.038;8.372;2022-11-12T02:25:06;12.97;;;5.70;;
12433;SDS011;6281;49.038;8.372;2022-11-12T02:27:34;9.00;;;6.30;;
12433;SDS011;6281;49.038;8.372;2022-11-12T02:30:01;8.50;;;5.80;;
12433;SDS011;6281;49.038;8.372;2022-11-12T02:32:29;8.23;;;5.90;;
12433;SDS011;6281;49.038;8.372;2022-11-12T02:34:56;11.00;;;6.60;;
12433;SDS011;6281;49.038;8.372;2022-11-12T02:37:23;9.13;;;5.80;;
12433;SDS011;6281;49.038;8.372;2022-11-12T02:39:51;10.97;;;6.40;;
12433;SDS011;6281;49.038;8.372;2022-11-12T02:42:18;8.50;;;6.00;;
12433;SDS011;6281;49.038;8.372;2022-11-12T02:44:45;13.57;;;6.20;;
12433;SDS011;6281;49.038;8.372;2022-11-12T02:47:12;12.07;;;5.80;;
12433;SDS011;6281;49.038;8.372;2022-11-12T02:49:39;10.73;;;6.33;;
12433;SDS011;6281;49.038;8.372;2022-11-12T02:52:06;9.90;;;6.43;;
12433;SDS011;6281;49.038;8.372;2022-11-12T02:54:33;9.53;;;6.40;;
12433;SDS011;6281;49.038;8.372;2022-11-12T02:57:01;10.00;;;6.53;;
12433;SDS011;6281;49.038;8.372;2022-11-12T02:59:28;7.53;;;6.30;;
12433;SDS011;6281;49.038;8.372;2022-11-12T03:01:55;12.43;;;7.07;;
12433;SDS011;6281;49.038;8.372;2022-11-12T03:04:22;9.93;;;6.37;;
12433;SDS011;6281;49.038;8.372;2022-11-12T03:06:49;8.07;;;5.93;;
12433;SDS011;6281;49.038;8.372;2022-11-12T03:09:16;7.57;;;6.13;;
12433;SDS011;6281;49.038;8.372;2022-11-12T03:11:43;8.70;;;5.53;;
12433;SDS011;6281;49.038;8.372;2022-11-12T03:14:11;7.87;;;5.97;;
12433;SDS011;6281;49.038;8.372;2022-11-12T03:16:38;9.97;;;6.37;;
12433;SDS011;6281;49.038;8.372;2022-11-12T03:19:05;8.83;;;6.23;;
12433;SDS011;6281;49.038;8.372;2022-11-12T03:21:32;11.07;;;6.27;;
12433;SDS011;6281;49.038;8.372;2022-11-12T03:23:59;7.57;;;6.20;;
12433;SDS011;6281;49.038;8.372;2022-11-12T03:26:26;9.07;;;6.27;;
12433;SDS011;6281;49.038;8.372;2022-11-12T03:28:53;9.13;;;6.33;;
12433;SDS011;6281;49.038;8.372;2022-11-12T03:31:21;8.93;;;6.00;;
12433;SDS011;6281;49.038;8.372;2022-11-12T03:33:48;7.50;;;6.13;;
12433;SDS011;6281;49.038;8.372;2022-11-12T03:36:15;8.80;;;6.23;;
12433;SDS011;6281;49.038;8.372;2022-11-12T03:38:42;8.33;;;6.23;;
12433;SDS011;6281;49.038;8.372;2022-11-12T03:41:09;8.27;;;5.83;;
12433;SDS011;6281;49.038;8.372;2022-11-12T03:43:36;8.97;;;6.20;;
12433;SDS011;6281;49.038;8.372;2022-11-12T03:46:03;7.90;;;5.90;;
12433;SDS011;6281;49.038;8.372;2022-11-12T03:48:32;8.70;;;6.30;;
12433;SDS011;6281;49.038;8.372;2022-11-12T03:50:58;7.77;;;6.00;;
12433;SDS011;6281;49.038;8.372;2022-11-12T03:53:26;9.77;;;6.03;;
12433;SDS011;6281;49.038;8.372;2022-11-12T03:55:53;7.70;;;5.70;;
12433;SDS011;6281;49.038;8.372;2022-11-12T03:58:19;7.73;;;5.70;;
12433;SDS011;6281;49.038;8.372;2022-11-12T04:00:46;6.87;;;5.90;;
12433;SDS011;6281;49.038;8.372;2022-11-12T04:03:13;8.70;;;5.73;;
12433;SDS011;6281;49.038;8.372;2022-11-12T04:05:41;8.00;;;5.70;;
12433;SDS011;6281;49.038;8.372;2022-11-12T04:08:25;7.77;;;5.50;;
12433;SDS011;6281;49.038;8.372;2022-11-12T04:11:02;8.73;;;5.33;;
12433;SDS011;6281;49.038;8.372;2022-11-12T04:13:32;5.87;;;5.00;;
12433;SDS011;6281;49.038;8.372;2022-11-12T04:15:59;5.77;;;4.90;;
12433;SDS011;6281;49.038;8.372;2022-11-12T04:18:45;5.87;;;4.83;;
12433;SDS011;6281;49.038;8.372;2022-11-12T04:21:33;8.70;;;5.30;;
12433;SDS011;6281;49.038;8.372;2022-11-12T04:24:22;6.93;;;5.37;;
12433;SDS011;6281;49.038;8.372;2022-11-12T04:27:08;6.83;;;5.37;;
12433;SDS011;6281;49.038;8.372;2022-11-12T04:29:36;7.63;;;5.37;;
12433;SDS011;6281;49.038;8.372;2022-11-12T04:32:20;10.20;;;5.93;;
12433;SDS011;6281;49.038;8.372;2022-11-12T04:34:47;8.87;;;6.60;;
12433;SDS011;6281;49.038;8.372;2022-11-12T04:37:16;7.93;;;6.57;;
12433;SDS011;6281;49.038;8.372;2022-11-12T04:39:43;8.43;;;6.57;;
12433;SDS011;6281;49.038;8.372;2022-11-12T04:42:09;6.43;;;5.17;;
12433;SDS011;6281;49.038;8.372;2022-11-12T04:44:54;6.93;;;5.57;;
12433;SDS011;6281;49.038;8.372;2022-11-12T04:47:29;8.43;;;6.20;;
12433;SDS011;6281;49.038;8.372;2022-11-12T04:49:59;7.73;;;5.37;;
12433;SDS011;6281;49.038;8.372;2022-11-12T04:52:28;6.97;;;5.40;;
12433;SDS011;6281;49.038;8.372;2022-11-12T04:54:56;6.73;;;5.37;;
12433;SDS011;6281;49.038;8.372;2022-11-12T04:57:23;6.17;;;4.90;;
12433;SDS011;6281;49.038;8.372;2022-11-12T04:59:51;5.20;;;4.40;;
12433;SDS011;6281;49.038;8.372;2022-11-12T05:02:18;7.80;;;4.97;;
12433;SDS011;6281;49.038;8.372;2022-11-12T05:04:45;5.80;;;4.80;;
12433;SDS011;6281;49.038;8.372;2022-11-12T05:07:12;8.00;;;5.17;;
12433;SDS011;6281;49.038;8.372;2022-11-12T05:09:41;6.57;;;5.23;;
12433;SDS011;6281;49.038;8.372;2022-11-12T05:12:09;6.87;;;5.40;;
12433;SDS011;6281;49.038;8.372;2022-11-12T05:14:36;6.60;;;5.13;;
12433;SDS011;6281;49.038;8.372;2022-11-12T05:17:03;7.30;;;5.80;;
12433;SDS011;6281;49.038;8.372;2022-11-12T05:19:30;6.67;;;5.30;;
12433;SDS011;6281;49.038;8.372;2022-11-12T05:21:58;6.53;;;5.30;;
12433;SDS011;6281;49.038;8.372;2022-11-12T05:24:30;6.87;;;5.07;;
12433;SDS011;6281;49.038;8.372;2022-11-12T05:27:00;7.50;;;5.43;;
12433;SDS011;6281;49.038;8.372;2022-11-12T05:29:27;6.73;;;5.40;;
12433;SDS011;6281;49.038;8.372;2022-11-12T05:31:54;7.23;;;5.37;;
12433;SDS011;6281;49.038;8.372;2022-11-12T05:34:21;7.43;;;5.77;;
12433;SDS011;6281;49.038;8.372;2022-11-12T05:36:48;6.17;;;5.37;;
12433;SDS011;6281;49.038;8.372;2022-11-12T05:39:15;6.67;;;5.47;;
12433;SDS011;6281;49.038;8.372;2022-11-12T05:41:41;8.07;;;5.47;;
12433;SDS011;6281;49.038;8.372;2022-11-12T05:44:10;6.30;;;5.20;;
12433;SDS011;6281;49.038;8.372;2022-11-12T05:46:37;7.00;;;5.83;;
12433;SDS011;6281;49.038;8.372;2022-11-12T05:49:04;7.30;;;5.53;;
12433;SDS011;6281;49.038;8.372;2022-11-12T05:51:30;7.73;;;5.20;;
12433;SDS011;6281;49.038;8.372;2022-11-12T05:53:57;7.30;;;5.77;;
12433;SDS011;6281;49.038;8.372;2022-11-12T05:56:24;6.87;;;5.57;;
12433;SDS011;6281;49.038;8.372;2022-11-12T05:58:51;8.13;;;5.73;;
12433;SDS011;6281;49.038;8.372;2022-11-12T06:01:19;6.80;;;5.57;;
12433;SDS011;6281;49.038;8.372;2022-11-12T06:03:46;7.30;;;5.60;;
12433;SDS011;6281;49.038;8.372;2022-11-12T06:06:13;7.53;;;5.90;;
12433;SDS011;6281;49.038;8.372;2022-11-12T06:08:40;7.83;;;6.07;;
12433;SDS011;6281;49.038;8.372;2022-11-12T06:11:07;9.97;;;6.17;;
12433;SDS011;6281;49.038;8.372;2022-11-12T06:13:34;9.50;;;6.53;;
12433;SDS011;6281;49.038;8.372;2022-11-12T06:16:01;11.73;;;7.50;;
12433;SDS011;6281;49.038;8.372;2022-11-12T06:18:29;10.43;;;7.30;;
12433;SDS011;6281;49.038;8.372;2022-11-12T06:21:00;10.27;;;7.07;;
12433;SDS011;6281;49.038;8.372;2022-11-12T06:23:47;10.10;;;7.27;;
12433;SDS011;6281;49.038;8.372;2022-11-12T06:26:16;10.90;;;7.43;;
12433;SDS011;6281;49.038;8.372;2022-11-12T06:28:43;11.73;;;7.13;;
12433;SDS011;6281;49.038;8.372;2022-11-12T06:31:10;11.07;;;7.17;;
12433;SDS011;6281;49.038;8.372;2022-11-12T06:33:39;10.13;;;7.93;;
12433;SDS011;6281;49.038;8.372;2022-11-12T06:36:06;10.20;;;7.70;;
12433;SDS011;6281;49.038;8.372;2022-11-12T06:38:36;12.03;;;8.03;;
12433;SDS011;6281;49.038;8.372;2022-11-12T06:41:04;10.67;;;7.57;;
12433;SDS011;6281;49.038;8.372;2022-11-12T06:43:32;9.40;;;7.40;;
12433;SDS011;6281;49.038;8.372;2022-11-12T06:46:00;10.50;;;7.07;;
12433;SDS011;6281;49.038;8.372;2022-11-12T06:48:28;10.60;;;6.97;;
12433;SDS011;6281;49.038;8.372;2022-11-12T06:50:56;8.77;;;7.20;;
12433;SDS011;6281;49.038;8.372;2022-11-12T06:53:24;11.83;;;7.20;;
12433;SDS011;6281;49.038;8.372;2022-11-12T06:55:51;10.27;;;7.23;;
12433;SDS011;6281;49.038;8.372;2022-11-12T06:58:18;9.97;;;6.97;;
12433;SDS011;6281;49.038;8.372;2022-11-12T07:00:45;8.27;;;6.80;;
12433;SDS011;6281;49.038;8.372;2022-11-12T07:03:12;9.10;;;6.83;;
12433;SDS011;6281;49.038;8.372;2022-11-12T07:05:41;11.87;;;9.73;;
12433;SDS011;6281;49.038;8.372;2022-11-12T07:08:09;7.70;;;6.63;;
12433;SDS011;6281;49.038;8.372;2022-11-12T07:10:37;8.70;;;7.27;;
12433;SDS011;6281;49.038;8.372;2022-11-12T07:13:03;15.97;;;8.17;;
12433;SDS011;6281;49.038;8.372;2022-11-12T07:15:30;11.10;;;7.07;;
12433;SDS011;6281;49.038;8.372;2022-11-12T07:17:57;9.17;;;7.37;;
12433;SDS011;6281;49.038;8.372;2022-11-12T07:20:24;11.30;;;7.07;;
12433;SDS011;6281;49.038;8.372;2022-11-12T07:22:51;7.10;;;6.40;;
12433;SDS011;6281;49.038;8.372;2022-11-12T07:25:19;9.43;;;6.53;;
12433;SDS011;6281;49.038;8.372;2022-11-12T07:27:46;7.23;;;5.80;;
12433;SDS011;6281;49.038;8.372;2022-11-12T07:30:14;8.10;;;6.57;;
12433;SDS011;6281;49.038;8.372;2022-11-12T07:32:42;7.10;;;6.20;;
12433;SDS011;6281;49.038;8.372;2022-11-12T07:35:09;7.03;;;6.00;;
12433;SDS011;6281;49.038;8.372;2022-11-12T07:37:36;7.43;;;6.40;;
12433;SDS011;6281;49.038;8.372;2022-11-12T07:40:03;7.87;;;6.07;;
12433;SDS011;6281;49.038;8.372;2022-11-12T07:42:32;7.03;;;6.33;;
12433;SDS011;6281;49.038;8.372;2022-11-12T07:45:00;6.93;;;5.93;;
12433;SDS011;6281;49.038;8.372;2022-11-12T07:47:27;8.93;;;5.87;;
12433;SDS011;6281;49.038;8.372;2022-11-12T07:49:54;7.73;;;6.33;;
12433;SDS011;6281;49.038;8.372;2022-11-12T07:52:21;8.20;;;5.90;;
12433;SDS011;6281;49.038;8.372;2022-11-12T07:54:48;10.27;;;5.93;;
12433;SDS011;6281;49.038;8.372;2022-11-12T07:57:15;6.40;;;5.30;;
12433;SDS011;6281;49.038;8.372;2022-11-12T07:59:43;7.87;;;5.50;;
12433;SDS011;6281;49.038;8.372;2022-11-12T08:02:10;6.10;;;5.50;;
12433;SDS011;6281;49.038;8.372;2022-11-12T08:04:37;8.67;;;5.40;;
12433;SDS011;6281;49.038;8.372;2022-11-12T08:07:04;7.00;;;5.90;;
12433;SDS011;6281;49.038;8.372;2022-11-12T08:09:31;6.70;;;5.60;;
12433;SDS011;6281;49.038;8.372;2022-11-12T08:11:58;6.97;;;5.57;;
12433;SDS011;6281;49.038;8.372;2022-11-12T08:14:25;7.13;;;5.87;;
12433;SDS011;6281;49.038;8.372;2022-11-12T08:16:53;8.23;;;7.03;;
12433;SDS011;6281;49.038;8.372;2022-11-12T08:19:20;8.47;;;5.93;;
12433;SDS011;6281;49.038;8.372;2022-11-12T08:21:47;6.93;;;6.17;;
12433;SDS011;6281;49.038;8.372;2022-11-12T08:24:13;7.23;;;5.90;;
12433;SDS011;6281;49.038;8.372;2022-11-12T08:26:40;6.73;;;5.30;;
12433;SDS011;6281;49.038;8.372;2022-11-12T08:29:07;5.83;;;5.10;;
12433;SDS011;6281;49.038;8.372;2022-11-12T08:31:34;7.40;;;5.80;;
12433;SDS011;6281;49.038;8.372;2022-11-12T08:34:03;7.03;;;5.67;;
12433;SDS011;6281;49.038;8.372;2022-11-12T08:36:36;6.60;;;5.67;;
12433;SDS011;6281;49.038;8.372;2022-11-12T08:39:04;7.20;;;5.63;;
12433;SDS011;6281;49.038;8.372;2022-11-12T08:41:32;6.47;;;5.00;;
12433;SDS011;6281;49.038;8.372;2022-11-12T08:43:59;7.17;;;5.83;;
12433;SDS011;6281;49.038;8.372;2022-11-12T08:46:26;7.47;;;5.73;;
12433;SDS011;6281;49.038;8.372;2022-11-12T08:48:53;6.53;;;5.70;;
12433;SDS011;6281;49.038;8.372;2022-11-12T08:51:22;8.50;;;6.03;;
12433;SDS011;6281;49.038;8.372;2022-11-12T08:53:49;7.90;;;6.17;;
12433;SDS011;6281;49.038;8.372;2022-11-12T08:56:15;6.67;;;5.63;;
12433;SDS011;6281;49.038;8.372;2022-11-12T08:58:42;6.73;;;5.77;;
12433;SDS011;6281;49.038;8.372;2022-11-12T09:01:09;6.43;;;5.70;;
12433;SDS011;6281;49.038;8.372;2022-11-12T09:03:36;5.97;;;5.37;;
12433;SDS011;6281;49.038;8.372;2022-11-12T09:06:03;7.03;;;5.70;;
12433;SDS011;6281;49.038;8.372;2022-11-12T09:08:34;8.67;;;5.73;;
12433;SDS011;6281;49.038;8.372;2022-11-12T09:11:02;9.27;;;6.67;;
12433;SDS011;6281;49.038;8.372;2022-11-12T09:13:29;7.67;;;6.87;;
12433;SDS011;6281;49.038;8.372;2022-11-12T09:16:00;8.83;;;6.60;;
12433;SDS011;6281;49.038;8.372;2022-11-12T09:18:27;10.03;;;7.40;;
12433;SDS011;6281;49.038;8.372;2022-11-12T09:20:58;8.03;;;6.77;;
12433;SDS011;6281;49.038;8.372;2022-11-12T09:23:29;8.47;;;6.77;;
12433;SDS011;6281;49.038;8.372;2022-11-12T09:25:58;8.97;;;7.27;;
12433;SDS011;6281;49.038;8.372;2022-11-12T09:28:25;9.20;;;7.80;;
12433;SDS011;6281;49.038;8.372;2022-11-12T09:30:52;12.07;;;9.90;;
12433;SDS011;6281;49.038;8.372;2022-11-12T09:33:20;10.93;;;9.07;;
12433;SDS011;6281;49.038;8.372;2022-11-12T09:35:49;9.27;;;7.87;;
12433;SDS011;6281;49.038;8.372;2022-11-12T09:38:17;8.73;;;6.87;;
12433;SDS011;6281;49.038;8.372;2022-11-12T09:40:56;8.53;;;6.43;;
12433;SDS011;6281;49.038;8.372;2022-11-12T09:43:31;9.33;;;6.80;;
12433;SDS011;6281;49.038;8.372;2022-11-12T09:46:00;10.93;;;9.00;;
12433;SDS011;6281;49.038;8.372;2022-11-12T09:48:32;13.17;;;10.93;;
12433;SDS011;6281;49.038;8.372;2022-11-12T09:51:09;13.50;;;10.60;;
12433;SDS011;6281;49.038;8.372;2022-11-12T09:53:48;12.33;;;9.83;;
12433;SDS011;6281;49.038;8.372;2022-11-12T09:56:21;14.17;;;10.87;;
12433;SDS011;6281;49.038;8.372;2022-11-12T09:58:49;13.07;;;9.67;;
12433;SDS011;6281;49.038;8.372;2022-11-12T10:01:17;13.83;;;10.87;;
12433;SDS011;6281;49.038;8.372;2022-11-12T10:03:51;14.13;;;10.80;;
12433;SDS011;6281;49.038;8.372;2022-11-12T10:06:28;15.87;;;12.80;;
12433;SDS011;6281;49.038;8.372;2022-11-12T10:09:03;18.67;;;14.33;;
12433;SDS011;6281;49.038;8.372;2022-11-12T10:18:12;22.20;;;15.73;;
12433;SDS011;6281;49.038;8.372;2022-11-12T10:20:46;21.57;;;15.20;;
12433;SDS011;6281;49.038;8.372;2022-11-12T10:23:24;20.37;;;15.13;;
12433;SDS011;6281;49.038;8.372;2022-11-12T10:25:55;22.13;;;16.83;;
12433;SDS011;6281;49.038;8.372;2022-11-12T10:28:27;22.67;;;15.67;;
12433;SDS011;6281;49.038;8.372;2022-11-12T10:30:57;18.93;;;14.47;;
12433;SDS011;6281;49.038;8.372;2022-11-12T10:33:28;19.07;;;14.17;;
12433;SDS011;6281;49.038;8.372;2022-11-12T10:35:58;20.53;;;14.77;;
12433;SDS011;6281;49.038;8.372;2022-11-12T10:38:52;23.50;;;15.40;;
12433;SDS011;6281;49.038;8.372;2022-11-12T10:41:21;18.87;;;14.03;;
12433;SDS011;6281;49.038;8.372;2022-11-12T10:43:55;19.33;;;15.07;;
12433;SDS011;6281;49.038;8.372;2022-11-12T10:46:24;18.80;;;14.37;;
12433;SDS011;6281;49.038;8.372;2022-11-12T10:48:54;20.77;;;14.73;;
12433;SDS011;6281;49.038;8.372;2022-11-12T10:51:24;22.20;;;15.93;;
12433;SDS011;6281;49.038;8.372;2022-11-12T10:53:56;22.10;;;16.30;;
12433;SDS011;6281;49.038;8.372;2022-11-12T10:56:25;22.87;;;16.53;;
12433;SDS011;6281;49.038;8.372;2022-11-12T10:59:09;22.30;;;16.23;;
12433;SDS011;6281;49.038;8.372;2022-11-12T11:01:40;21.97;;;16.80;;
12433;SDS011;6281;49.038;8.372;2022-11-12T11:04:14;22.27;;;16.13;;
12433;SDS011;6281;49.038;8.372;2022-11-12T11:06:44;21.33;;;16.80;;
12433;SDS011;6281;49.038;8.372;2022-11-12T11:09:14;22.60;;;16.30;;
12433;SDS011;6281;49.038;8.372;2022-11-12T11:11:47;22.60;;;17.27;;
12433;SDS011;6281;49.038;8.372;2022-11-12T11:14:27;25.47;;;16.97;;
12433;SDS011;6281;49.038;8.372;2022-11-12T11:16:57;24.83;;;17.63;;
12433;SDS011;6281;49.038;8.372;2022-11-12T11:19:27;28.17;;;18.80;;
12433;SDS011;6281;49.038;8.372;2022-11-12T11:22:02;27.17;;;19.00;;
12433;SDS011;6281;49.038;8.372;2022-11-12T11:24:38;28.13;;;19.23;;
12433;SDS011;6281;49.038;8.372;2022-11-12T11:27:18;26.03;;;19.33;;
12433;SDS011;6281;49.038;8.372;2022-11-12T11:30:01;26.67;;;18.83;;
12433;SDS011;6281;49.038;8.372;2022-11-12T11:32:41;23.97;;;18.30;;
12433;SDS011;6281;49.038;8.372;2022-11-12T11:35:20;26.50;;;17.67;;
12433;SDS011;6281;49.038;8.372;2022-11-12T11:37:57;23.60;;;16.63;;
12433;SDS011;6281;49.038;8.372;2022-11-12T11:40:35;22.27;;;16.67;;
12433;SDS011;6281;49.038;8.372;2022-11-12T11:43:10;22.83;;;16.60;;
12433;SDS011;6281;49.038;8.372;2022-11-12T11:45:53;23.10;;;17.10;;
12433;SDS011;6281;49.038;8.372;2022-11-12T11:48:30;28.80;;;18.40;;
12433;SDS011;6281;49.038;8.372;2022-11-12T11:51:06;25.97;;;18.80;;
12433;SDS011;6281;49.038;8.372;2022-11-12T11:53:45;24.93;;;18.13;;
12433;SDS011;6281;49.038;8.372;2022-11-12T11:56:21;23.83;;;18.13;;
12433;SDS011;6281;49.038;8.372;2022-11-12T12:01:53;23.73;;;18.17;;
12433;SDS011;6281;49.038;8.372;2022-11-12T12:04:36;27.87;;;18.50;;
12433;SDS011;6281;49.038;8.372;2022-11-12T12:07:13;23.77;;;18.23;;
12433;SDS011;6281;49.038;8.372;2022-11-12T12:09:47;24.93;;;18.57;;
12433;SDS011;6281;49.038;8.372;2022-11-12T12:12:23;25.17;;;17.97;;
12433;SDS011;6281;49.038;8.372;2022-11-12T12:15:10;26.73;;;18.67;;
12433;SDS011;6281;49.038;8.372;2022-11-12T12:18:00;25.73;;;19.07;;
12433;SDS011;6281;49.038;8.372;2022-11-12T12:20:34;22.80;;;17.70;;
12433;SDS011;6281;49.038;8.372;2022-11-12T12:23:10;23.67;;;17.97;;
12433;SDS011;6281;49.038;8.372;2022-11-12T12:25:43;25.07;;;18.43;;
12433;SDS011;6281;49.038;8.372;2022-11-12T12:28:15;26.03;;;18.70;;
12433;SDS011;6281;49.038;8.372;2022-11-12T12:30:49;25.33;;;17.50;;
12433;SDS011;6281;49.038;8.372;2022-11-12T12:33:23;22.47;;;16.77;;
12433;SDS011;6281;49.038;8.372;2022-11-12T12:35:57;23.20;;;17.03;;
12433;SDS011;6281;49.038;8.372;2022-11-12T12:38:28;24.43;;;17.03;;
12433;SDS011;6281;49.038;8.372;2022-11-12T12:41:04;19.93;;;15.67;;
12433;SDS011;6281;49.038;8.372;2022-11-12T12:43:40;20.57;;;16.40;;
12433;SDS011;6281;49.038;8.372;2022-11-12T12:46:12;19.80;;;15.17;;
12433;SDS011;6281;49.038;8.372;2022-11-12T12:48:44;22.10;;;15.70;;
12433;SDS011;6281;49.038;8.372;2022-11-12T12:51:12;20.20;;;14.90;;
12433;SDS011;6281;49.038;8.372;2022-11-12T12:53:39;23.13;;;17.03;;
12433;SDS011;6281;49.038;8.372;2022-11-12T12:56:19;19.37;;;14.83;;
12433;SDS011;6281;49.038;8.372;2022-11-12T12:59:21;18.10;;;14.33;;
12433;SDS011;6281;49.038;8.372;2022-11-12T13:01:53;18.63;;;14.43;;
12433;SDS011;6281;49.038;8.372;2022-11-12T13:07:21;18.37;;;14.50;;
12433;SDS011;6281;49.038;8.372;2022-11-12T13:13:27;18.97;;;14.63;;
12433;SDS011;6281;49.038;8.372;2022-11-12T13:15:56;18.80;;;14.53;;
12433;SDS011;6281;49.038;8.372;2022-11-12T13:21:27;17.83;;;13.23;;
12433;SDS011;6281;49.038;8.372;2022-11-12T13:23:56;18.10;;;14.27;;
12433;SDS011;6281;49.038;8.372;2022-11-12T13:26:41;15.27;;;13.03;;
12433;SDS011;6281;49.038;8.372;2022-11-12T13:29:17;15.63;;;12.87;;
12433;SDS011;6281;49.038;8.372;2022-11-12T13:31:46;17.17;;;12.87;;
12433;SDS011;6281;49.038;8.372;2022-11-12T13:37:00;19.10;;;13.27;;
12433;SDS011;6281;49.038;8.372;2022-11-12T13:39:30;18.97;;;14.57;;
12433;SDS011;6281;49.038;8.372;2022-11-12T13:42:00;14.63;;;12.33;;
12433;SDS011;6281;49.038;8.372;2022-11-12T13:44:54;14.63;;;12.53;;
12433;SDS011;6281;49.038;8.372;2022-11-12T13:47:21;15.10;;;12.43;;
12433;SDS011;6281;49.038;8.372;2022-11-12T13:49:52;15.53;;;13.47;;
12433;SDS011;6281;49.038;8.372;2022-11-12T13:52:22;14.07;;;11.97;;
12433;SDS011;6281;49.038;8.372;2022-11-12T13:54:59;15.63;;;12.50;;
12433;SDS011;6281;49.038;8.372;2022-11-12T13:57:28;15.70;;;11.93;;
12433;SDS011;6281;49.038;8.372;2022-11-12T14:02:52;15.60;;;12.10;;
12433;SDS011;6281;49.038;8.372;2022-11-12T14:05:23;14.33;;;11.63;;
12433;SDS011;6281;49.038;8.372;2022-11-12T14:08:02;14.97;;;12.83;;
12433;SDS011;6281;49.038;8.372;2022-11-12T14:10:55;14.23;;;12.10;;
12433;SDS011;6281;49.038;8.372;2022-11-12T14:13:42;15.27;;;12.17;;
12433;SDS011;6281;49.038;8.372;2022-11-12T14:16:24;14.17;;;12.63;;
12433;SDS011;6281;49.038;8.372;2022-11-12T14:19:05;13.50;;;11.63;;
12433;SDS011;6281;49.038;8.372;2022-11-12T14:21:47;17.10;;;13.03;;
12433;SDS011;6281;49.038;8.372;2022-11-12T14:24:25;15.27;;;12.27;;
12433;SDS011;6281;49.038;8.372;2022-11-12T14:26:52;13.97;;;12.20;;
12433;SDS011;6281;49.038;8.372;2022-11-12T14:29:19;14.20;;;12.63;;
12433;SDS011;6281;49.038;8.372;2022-11-12T14:31:46;14.13;;;11.90;;
12433;SDS011;6281;49.038;8.372;2022-11-12T14:34:26;14.03;;;11.97;;
12433;SDS011;6281;49.038;8.372;2022-11-12T14:36:55;13.27;;;11.87;;
12433;SDS011;6281;49.038;8.372;2022-11-12T14:39:22;16.23;;;12.77;;
12433;SDS011;6281;49.038;8.372;2022-11-12T14:41:52;13.70;;;11.87;;
12433;SDS011;6281;49.038;8.372;2022-11-12T14:44:21;15.40;;;12.53;;
12433;SDS011;6281;49.038;8.372;2022-11-12T14:46:52;14.87;;;12.63;;
12433;SDS011;6281;49.038;8.372;2022-11-12T14:49:21;15.20;;;12.63;;
12433;SDS011;6281;49.038;8.372;2022-11-12T14:51:59;13.87;;;12.10;;
12433;SDS011;6281;49.038;8.372;2022-11-12T14:54:33;14.67;;;12.53;;
12433;SDS011;6281;49.038;8.372;2022-11-12T14:57:05;15.17;;;12.83;;
12433;SDS011;6281;49.038;8.372;2022-11-12T14:59:37;16.63;;;12.17;;
12433;SDS011;6281;49.038;8.372;2022-11-12T15:02:05;15.07;;;13.17;;
12433;SDS011;6281;49.038;8.372;2022-11-12T15:04:35;14.63;;;12.50;;
12433;SDS011;6281;49.038;8.372;2022-11-12T15:07:04;13.97;;;12.10;;
12433;SDS011;6281;49.038;8.372;2022-11-12T15:09:34;15.07;;;12.93;;
12433;SDS011;6281;49.038;8.372;2022-11-12T15:12:03;15.63;;;12.77;;
12433;SDS011;6281;49.038;8.372;2022-11-12T15:14:32;17.73;;;14.03;;
12433;SDS011;6281;49.038;8.372;2022-11-12T15:17:00;15.43;;;13.00;;
12433;SDS011;6281;49.038;8.372;2022-11-12T15:19:29;15.73;;;12.57;;
12433;SDS011;6281;49.038;8.372;2022-11-12T15:21:57;17.03;;;14.03;;
12433;SDS011;6281;49.038;8.372;2022-11-12T15:24:27;16.73;;;14.17;;
12433;SDS011;6281;49.038;8.372;2022-11-12T15:26:58;17.53;;;14.40;;
12433;SDS011;6281;49.038;8.372;2022-11-12T15:29:27;17.20;;;14.17;;
12433;SDS011;6281;49.038;8.372;2022-11-12T15:31:59;18.77;;;14.70;;
12433;SDS011;6281;49.038;8.372;2022-11-12T15:34:29;17.47;;;14.40;;